Time;durP1;ratioP1;P1;durP2;ratioP2;P2;SDS_P1;SDS_P2;PMS_P1;PMS_P2;Temp;Humidity;BMP_temperature;BMP_pressure;BME280_temperature;BME280_humidity;BME280_pressure;Samples;Min_cycle;Max_cycle;Signal;HPM_P1;HPM_P2
2020/12/29 00:00:09;;;;;;;10.93;8.90;;;;;;;;;;5094233;28;20276;-59
2020/12/29 00:02:35;;;;;;;10.98;9.25;;;;;;;;;;5094965;28;20556;-59
2020/12/29 00:05:03;;;;;;;9.60;8.60;;;;;;;;;;5095972;28;20196;-59
2020/12/29 00:07:30;;;;;;;8.55;7.65;;;;;;;;;;5096201;28;20220;-59
2020/12/29 00:09:57;;;;;;;10.20;9.15;;;;;;;;;;5099732;28;20659;-59
2020/12/29 00:12:23;;;;;;;10.35;9.13;;;;;;;;;;5101746;28;20220;-59
2020/12/29 00:14:50;;;;;;;10.85;9.73;;;;;;;;;;5101652;28;20200;-59
2020/12/29 00:17:17;;;;;;;10.43;8.93;;;;;;;;;;5096725;28;20254;-59
2020/12/29 00:19:43;;;;;;;10.10;8.85;;;;;;;;;;5096503;28;20741;-59
2020/12/29 00:22:11;;;;;;;10.55;9.48;;;;;;;;;;5096588;28;20269;-58
2020/12/29 00:24:38;;;;;;;10.73;9.35;;;;;;;;;;5100230;28;20204;-59
2020/12/29 00:27:05;;;;;;;11.55;9.18;;;;;;;;;;5111445;28;20207;-60
2020/12/29 00:29:31;;;;;;;11.52;8.82;;;;;;;;;;5112811;28;20230;-59
2020/12/29 00:31:58;;;;;;;11.07;8.10;;;;;;;;;;5108835;28;20636;-62
2020/12/29 00:34:25;;;;;;;10.55;8.10;;;;;;;;;;5099698;28;20204;-60
2020/12/29 00:36:52;;;;;;;12.70;8.93;;;;;;;;;;5098092;28;20207;-59
2020/12/29 00:39:20;;;;;;;11.00;9.77;;;;;;;;;;5097678;28;20292;-59
2020/12/29 00:41:47;;;;;;;10.30;9.20;;;;;;;;;;5097381;28;20562;-58
2020/12/29 00:44:13;;;;;;;11.50;10.30;;;;;;;;;;5097044;28;20211;-59
2020/12/29 00:46:40;;;;;;;10.93;9.82;;;;;;;;;;5097369;28;20201;-59
2020/12/29 00:49:07;;;;;;;11.43;10.02;;;;;;;;;;5100493;28;20273;-60
2020/12/29 00:51:34;;;;;;;13.60;10.65;;;;;;;;;;5102394;28;20269;-60
2020/12/29 00:54:00;;;;;;;11.15;9.95;;;;;;;;;;5102379;28;20205;-60
2020/12/29 00:56:28;;;;;;;10.35;9.35;;;;;;;;;;5102966;28;20249;-61
2020/12/29 00:58:55;;;;;;;12.27;10.75;;;;;;;;;;5103017;28;20211;-60
2020/12/29 01:01:21;;;;;;;10.07;9.10;;;;;;;;;;5102766;28;20590;-61
2020/12/29 01:03:48;;;;;;;13.73;10.63;;;;;;;;;;5104706;28;20211;-60
2020/12/29 01:06:15;;;;;;;11.70;10.50;;;;;;;;;;5106668;28;20341;-60
2020/12/29 01:08:42;;;;;;;11.52;10.32;;;;;;;;;;5107161;28;20209;-60
2020/12/29 01:11:08;;;;;;;12.27;10.90;;;;;;;;;;5106353;28;20597;-60
2020/12/29 01:13:36;;;;;;;12.00;10.48;;;;;;;;;;5106713;28;20576;-60
2020/12/29 01:16:06;;;;;;;13.48;10.80;;;;;;;;;;5106052;28;20200;-60
2020/12/29 01:18:33;;;;;;;10.10;9.10;;;;;;;;;;5105228;28;20672;-59
2020/12/29 01:20:59;;;;;;;13.15;10.82;;;;;;;;;;5105512;28;20220;-60
2020/12/29 01:23:26;;;;;;;11.07;9.73;;;;;;;;;;5105631;28;20201;-60
2020/12/29 01:25:53;;;;;;;12.10;10.68;;;;;;;;;;5102931;28;20201;-61
2020/12/29 01:28:19;;;;;;;11.30;10.20;;;;;;;;;;5097945;28;20233;-59
2020/12/29 01:30:47;;;;;;;11.85;10.63;;;;;;;;;;5097365;28;20200;-60
2020/12/29 01:33:14;;;;;;;13.77;11.40;;;;;;;;;;5097480;28;20204;-60
2020/12/29 01:35:41;;;;;;;11.30;10.10;;;;;;;;;;5096613;28;20204;-60
2020/12/29 01:38:07;;;;;;;12.60;10.70;;;;;;;;;;5097202;28;20193;-60
2020/12/29 01:40:34;;;;;;;14.48;11.40;;;;;;;;;;5098256;28;20515;-60
2020/12/29 01:43:01;;;;;;;13.48;10.73;;;;;;;;;;5099335;28;20201;-59
2020/12/29 01:45:28;;;;;;;12.43;11.13;;;;;;;;;;5101615;28;20200;-59
2020/12/29 01:47:56;;;;;;;12.18;10.98;;;;;;;;;;5101350;28;20227;-59
2020/12/29 01:50:23;;;;;;;13.82;11.27;;;;;;;;;;5099745;28;20200;-59
2020/12/29 01:52:56;;;;;;;14.73;11.68;;;;;;;;;;5097482;28;20223;-59
2020/12/29 01:55:22;;;;;;;12.40;11.10;;;;;;;;;;5097246;28;20184;-59
2020/12/29 01:57:49;;;;;;;12.85;10.80;;;;;;;;;;5096448;28;20205;-59
2020/12/29 02:00:16;;;;;;;13.63;11.20;;;;;;;;;;5096126;28;20239;-60
2020/12/29 02:02:43;;;;;;;11.98;10.57;;;;;;;;;;5095868;28;20273;-59
2020/12/29 02:05:10;;;;;;;14.15;12.10;;;;;;;;;;5095844;28;20238;-59
2020/12/29 02:07:37;;;;;;;15.93;12.57;;;;;;;;;;5095360;28;20699;-60
2020/12/29 02:10:04;;;;;;;13.55;11.27;;;;;;;;;;5095567;28;20241;-59
2020/12/29 02:12:32;;;;;;;15.18;11.57;;;;;;;;;;5095781;28;20696;-59
2020/12/29 02:14:59;;;;;;;12.60;10.95;;;;;;;;;;5095536;28;20253;-59
2020/12/29 02:17:26;;;;;;;13.07;11.68;;;;;;;;;;5095255;28;20205;-60
2020/12/29 02:19:53;;;;;;;15.07;12.77;;;;;;;;;;5095639;28;20200;-59
2020/12/29 02:22:21;;;;;;;13.50;11.90;;;;;;;;;;5095468;28;20228;-59
2020/12/29 02:24:49;;;;;;;12.70;10.65;;;;;;;;;;5095244;28;20200;-59
2020/12/29 02:27:16;;;;;;;13.57;11.27;;;;;;;;;;5095597;28;20295;-59
2020/12/29 02:29:42;;;;;;;12.90;11.02;;;;;;;;;;5095770;28;20207;-60
2020/12/29 02:32:09;;;;;;;13.73;11.35;;;;;;;;;;5095428;28;20216;-59
2020/12/29 02:34:37;;;;;;;15.40;11.57;;;;;;;;;;5095809;28;20205;-60
2020/12/29 02:37:04;;;;;;;15.98;11.30;;;;;;;;;;5096499;28;20200;-60
2020/12/29 02:39:32;;;;;;;11.75;10.45;;;;;;;;;;5099902;28;20256;-59
2020/12/29 02:41:59;;;;;;;12.80;11.45;;;;;;;;;;5096237;28;20593;-60
2020/12/29 02:44:26;;;;;;;13.82;11.68;;;;;;;;;;5096671;28;20208;-59
2020/12/29 02:46:52;;;;;;;13.07;11.30;;;;;;;;;;5095302;28;20204;-59
2020/12/29 02:49:19;;;;;;;11.30;10.20;;;;;;;;;;5096017;28;20703;-60
2020/12/29 02:51:46;;;;;;;13.93;10.45;;;;;;;;;;5095920;28;20235;-60
2020/12/29 02:54:13;;;;;;;12.95;10.02;;;;;;;;;;5097449;28;20204;-59
2020/12/29 02:56:41;;;;;;;12.45;10.85;;;;;;;;;;5097358;28;20200;-60
2020/12/29 02:59:08;;;;;;;11.93;10.63;;;;;;;;;;5096640;28;20193;-59
2020/12/29 03:01:35;;;;;;;11.38;9.65;;;;;;;;;;5096730;28;20224;-60
2020/12/29 03:04:01;;;;;;;11.13;9.95;;;;;;;;;;5094747;28;20207;-60
2020/12/29 03:06:28;;;;;;;9.70;8.55;;;;;;;;;;5094768;28;20586;-59
2020/12/29 03:08:55;;;;;;;9.52;8.52;;;;;;;;;;5094802;28;20220;-59
2020/12/29 03:11:26;;;;;;;9.82;8.73;;;;;;;;;;5094899;28;20221;-60
2020/12/29 03:13:54;;;;;;;9.13;8.23;;;;;;;;;;5094514;28;20204;-59
2020/12/29 03:16:20;;;;;;;10.02;8.73;;;;;;;;;;5094242;28;20208;-60
2020/12/29 03:18:47;;;;;;;8.75;7.85;;;;;;;;;;5094549;28;20197;-59
2020/12/29 03:21:14;;;;;;;7.97;6.82;;;;;;;;;;5094274;28;20216;-58
2020/12/29 03:23:41;;;;;;;9.45;8.50;;;;;;;;;;5094224;28;20200;-60
2020/12/29 03:26:08;;;;;;;9.30;7.57;;;;;;;;;;5094160;28;20216;-59
2020/12/29 03:28:34;;;;;;;10.25;8.75;;;;;;;;;;5094279;28;20216;-59
2020/12/29 03:31:02;;;;;;;10.23;9.13;;;;;;;;;;5094139;28;20229;-60
2020/12/29 03:33:29;;;;;;;11.20;8.80;;;;;;;;;;5100724;28;20200;-59
2020/12/29 03:35:56;;;;;;;10.75;9.20;;;;;;;;;;5102961;28;20267;-60
2020/12/29 03:38:23;;;;;;;12.57;9.48;;;;;;;;;;5104278;28;20196;-59
2020/12/29 03:40:49;;;;;;;12.02;9.32;;;;;;;;;;5101663;28;20197;-59
2020/12/29 03:43:16;;;;;;;11.38;10.05;;;;;;;;;;5097972;28;20207;-60
2020/12/29 03:45:43;;;;;;;9.88;8.88;;;;;;;;;;5096864;28;20226;-60
2020/12/29 03:48:11;;;;;;;9.77;8.75;;;;;;;;;;5095819;28;20220;-60
2020/12/29 03:50:39;;;;;;;10.30;8.82;;;;;;;;;;5095529;28;20196;-61
2020/12/29 03:53:06;;;;;;;10.45;8.52;;;;;;;;;;5097286;28;20579;-60
2020/12/29 03:55:32;;;;;;;10.55;8.93;;;;;;;;;;5097662;28;20273;-59
2020/12/29 03:57:59;;;;;;;11.82;9.15;;;;;;;;;;5094716;28;20204;-59
2020/12/29 04:00:26;;;;;;;12.00;8.90;;;;;;;;;;5096352;28;20207;-59
2020/12/29 04:02:53;;;;;;;10.15;8.45;;;;;;;;;;5096508;28;20644;-59
2020/12/29 04:07:31;;;;;;;9.40;8.40;;;;;;;;;;5114529;27;20606;-59
2020/12/29 04:09:57;;;;;;;10.80;8.77;;;;;;;;;;5112726;28;20210;-59
2020/12/29 04:12:24;;;;;;;11.63;9.30;;;;;;;;;;5112555;28;20223;-59
2020/12/29 04:14:51;;;;;;;9.88;8.10;;;;;;;;;;5112542;28;20200;-58
2020/12/29 04:17:18;;;;;;;10.13;9.02;;;;;;;;;;5112175;28;20203;-60
2020/12/29 04:19:44;;;;;;;11.35;8.93;;;;;;;;;;5113303;28;20213;-59
2020/12/29 04:22:11;;;;;;;10.82;9.60;;;;;;;;;;5111466;28;20224;-59
2020/12/29 04:24:39;;;;;;;11.15;9.68;;;;;;;;;;5111326;28;20196;-60
2020/12/29 04:27:06;;;;;;;10.48;8.10;;;;;;;;;;5111698;28;20220;-60
2020/12/29 04:29:32;;;;;;;10.40;8.25;;;;;;;;;;5111546;28;20230;-59
2020/12/29 04:31:59;;;;;;;11.38;9.70;;;;;;;;;;5111179;28;20208;-60
2020/12/29 04:34:26;;;;;;;11.07;9.40;;;;;;;;;;5111441;28;20724;-59
2020/12/29 04:36:53;;;;;;;11.88;9.75;;;;;;;;;;5111407;28;20264;-60
2020/12/29 04:39:20;;;;;;;11.55;9.90;;;;;;;;;;5111129;28;20203;-59
2020/12/29 04:41:51;;;;;;;11.85;9.90;;;;;;;;;;5111240;28;20230;-59
2020/12/29 04:44:18;;;;;;;9.98;8.90;;;;;;;;;;5111068;28;20195;-59
2020/12/29 04:46:45;;;;;;;10.52;8.77;;;;;;;;;;5110602;28;20221;-60
2020/12/29 04:49:12;;;;;;;10.85;9.20;;;;;;;;;;5111396;28;20221;-58
2020/12/29 04:51:39;;;;;;;11.82;9.50;;;;;;;;;;5112452;28;20242;-60
2020/12/29 04:54:07;;;;;;;10.30;9.30;;;;;;;;;;5111970;28;20241;-60
2020/12/29 04:56:34;;;;;;;11.13;9.70;;;;;;;;;;5110744;28;20206;-60
2020/12/29 04:59:02;;;;;;;10.95;9.75;;;;;;;;;;5110718;28;20200;-59
2020/12/29 05:01:30;;;;;;;12.63;10.40;;;;;;;;;;5110710;28;20242;-59
2020/12/29 05:03:57;;;;;;;13.82;8.63;;;;;;;;;;5110602;28;20250;-59
2020/12/29 05:06:24;;;;;;;10.77;9.48;;;;;;;;;;5110654;28;20231;-59
2020/12/29 05:08:52;;;;;;;12.75;9.27;;;;;;;;;;5111082;28;20211;-59
2020/12/29 05:11:19;;;;;;;12.68;9.68;;;;;;;;;;5111866;28;20272;-59
2020/12/29 05:13:46;;;;;;;10.45;9.45;;;;;;;;;;5112695;28;20204;-58
2020/12/29 05:16:14;;;;;;;10.25;8.80;;;;;;;;;;5112532;28;20257;-58
2020/12/29 05:18:41;;;;;;;12.40;9.15;;;;;;;;;;5101219;28;20209;-59
2020/12/29 05:21:08;;;;;;;11.63;10.32;;;;;;;;;;5098851;28;20220;-59
2020/12/29 05:23:35;;;;;;;12.02;10.52;;;;;;;;;;5098497;28;20204;-59
2020/12/29 05:26:03;;;;;;;13.63;10.65;;;;;;;;;;5098330;28;20216;-59
2020/12/29 05:28:29;;;;;;;11.93;10.15;;;;;;;;;;5097659;28;20205;-59
2020/12/29 05:30:57;;;;;;;11.70;9.98;;;;;;;;;;5097361;28;20223;-59
2020/12/29 05:33:25;;;;;;;11.65;10.13;;;;;;;;;;5097170;28;20204;-58
2020/12/29 05:35:52;;;;;;;14.55;9.90;;;;;;;;;;5096764;28;20196;-59
2020/12/29 05:38:19;;;;;;;11.68;9.80;;;;;;;;;;5096392;28;20201;-59
2020/12/29 05:40:46;;;;;;;12.18;9.82;;;;;;;;;;5096331;28;20204;-59
2020/12/29 05:43:14;;;;;;;12.18;10.27;;;;;;;;;;5096429;28;20243;-59
2020/12/29 05:45:40;;;;;;;11.93;10.25;;;;;;;;;;5095846;28;20213;-58
2020/12/29 05:48:07;;;;;;;15.57;10.50;;;;;;;;;;5096172;28;20204;-60
2020/12/29 05:50:37;;;;;;;11.20;10.00;;;;;;;;;;5095800;28;20204;-60
2020/12/29 05:53:07;;;;;;;13.65;9.60;;;;;;;;;;5096181;28;20204;-59
2020/12/29 05:55:34;;;;;;;12.05;9.95;;;;;;;;;;5096010;28;20676;-59
2020/12/29 05:58:01;;;;;;;11.45;10.20;;;;;;;;;;5097293;28;20216;-58
2020/12/29 06:00:28;;;;;;;14.15;10.57;;;;;;;;;;5098128;28;20200;-58
2020/12/29 06:02:56;;;;;;;11.68;9.60;;;;;;;;;;5096328;28;20776;-59
2020/12/29 06:05:23;;;;;;;12.52;9.77;;;;;;;;;;5096476;28;20227;-59
2020/12/29 06:07:53;;;;;;;12.48;8.85;;;;;;;;;;5097653;28;20191;-59
2020/12/29 06:10:20;;;;;;;10.50;9.40;;;;;;;;;;5097310;28;20208;-58
2020/12/29 06:12:51;;;;;;;15.35;10.15;;;;;;;;;;5096124;28;20220;-60
2020/12/29 06:15:22;;;;;;;12.98;10.00;;;;;;;;;;5097877;28;20234;-59
2020/12/29 06:17:53;;;;;;;10.18;8.70;;;;;;;;;;5096870;28;20191;-59
2020/12/29 06:20:20;;;;;;;13.40;10.90;;;;;;;;;;5096493;28;20238;-58
2020/12/29 06:22:50;;;;;;;12.43;9.30;;;;;;;;;;5095181;28;20220;-59
2020/12/29 06:25:18;;;;;;;12.18;9.45;;;;;;;;;;5095531;28;20196;-57
2020/12/29 06:27:49;;;;;;;11.18;9.48;;;;;;;;;;5095980;28;20269;-58
2020/12/29 06:30:17;;;;;;;12.43;9.50;;;;;;;;;;5095074;28;20188;-58
2020/12/29 06:32:46;;;;;;;13.88;9.25;;;;;;;;;;5095731;28;20216;-58
2020/12/29 06:35:12;;;;;;;13.48;10.02;;;;;;;;;;5095400;28;20205;-59
2020/12/29 06:37:43;;;;;;;12.25;9.07;;;;;;;;;;5095338;28;20574;-59
2020/12/29 06:40:10;;;;;;;11.70;9.50;;;;;;;;;;5095044;28;20184;-59
2020/12/29 06:42:40;;;;;;;11.00;9.38;;;;;;;;;;5094956;28;20216;-59
2020/12/29 06:45:08;;;;;;;10.80;9.18;;;;;;;;;;5095339;28;20201;-59
2020/12/29 06:47:37;;;;;;;12.18;9.23;;;;;;;;;;5094966;28;20648;-58
2020/12/29 06:50:20;;;;;;;12.82;9.68;;;;;;;;;;5094690;28;20196;-58
2020/12/29 06:52:53;;;;;;;14.43;10.30;;;;;;;;;;5095036;28;20224;-57
2020/12/29 06:55:20;;;;;;;13.70;9.10;;;;;;;;;;5095089;28;20275;-58
2020/12/29 06:57:48;;;;;;;10.55;8.35;;;;;;;;;;5094864;28;20576;-59
2020/12/29 07:00:19;;;;;;;9.75;8.20;;;;;;;;;;5096156;28;20273;-58
2020/12/29 07:02:47;;;;;;;8.70;7.70;;;;;;;;;;5097261;28;20220;-59
2020/12/29 07:05:14;;;;;;;8.40;7.60;;;;;;;;;;5101379;28;20349;-58
2020/12/29 07:08:02;;;;;;;12.75;8.13;;;;;;;;;;5100635;28;20205;-59
2020/12/29 07:10:33;;;;;;;9.63;8.07;;;;;;;;;;5093587;28;20663;-59
2020/12/29 07:13:05;;;;;;;8.63;7.55;;;;;;;;;;5099971;28;20706;-58
2020/12/29 07:15:32;;;;;;;12.27;7.72;;;;;;;;;;5097772;28;20203;-58
2020/12/29 07:18:00;;;;;;;9.07;7.95;;;;;;;;;;5095590;28;20211;-59
2020/12/29 07:20:30;;;;;;;9.18;7.70;;;;;;;;;;5095453;28;20735;-59
2020/12/29 07:22:58;;;;;;;8.02;7.20;;;;;;;;;;5095669;28;20220;-59
2020/12/29 07:25:25;;;;;;;8.07;6.68;;;;;;;;;;5094739;28;20303;-59
2020/12/29 07:27:56;;;;;;;8.93;6.95;;;;;;;;;;5094701;28;20628;-58
2020/12/29 07:30:23;;;;;;;9.15;7.43;;;;;;;;;;5094194;28;20208;-59
2020/12/29 07:32:50;;;;;;;7.55;6.25;;;;;;;;;;5093991;28;20269;-59
2020/12/29 07:35:18;;;;;;;9.10;7.00;;;;;;;;;;5094306;28;20197;-59
2020/12/29 07:37:47;;;;;;;8.13;7.32;;;;;;;;;;5094204;28;20292;-58
2020/12/29 07:40:13;;;;;;;9.73;7.78;;;;;;;;;;5094442;28;20237;-58
2020/12/29 07:42:40;;;;;;;9.95;6.95;;;;;;;;;;5094205;28;20707;-59
2020/12/29 07:45:07;;;;;;;8.07;6.55;;;;;;;;;;5094302;28;20667;-59
2020/12/29 07:47:34;;;;;;;9.25;7.25;;;;;;;;;;5094548;28;20224;-59
2020/12/29 07:50:01;;;;;;;8.35;6.70;;;;;;;;;;5094450;28;20636;-59
2020/12/29 07:52:28;;;;;;;8.93;7.90;;;;;;;;;;5094826;28;20216;-58
2020/12/29 07:55:08;;;;;;;10.95;6.97;;;;;;;;;;5095419;28;20257;-59
2020/12/29 07:57:35;;;;;;;8.13;6.65;;;;;;;;;;5096597;28;20196;-58
2020/12/29 08:00:12;;;;;;;8.68;7.57;;;;;;;;;;5095822;28;20200;-59
2020/12/29 08:02:40;;;;;;;7.85;6.88;;;;;;;;;;5096692;28;20220;-59
2020/12/29 08:05:07;;;;;;;10.80;7.57;;;;;;;;;;5094679;28;20288;-59
2020/12/29 08:07:34;;;;;;;12.93;8.10;;;;;;;;;;5094690;28;20209;-59
2020/12/29 08:10:01;;;;;;;7.50;6.75;;;;;;;;;;5095908;28;20207;-58
2020/12/29 08:12:27;;;;;;;8.75;7.38;;;;;;;;;;5094407;28;20220;-58
2020/12/29 08:14:54;;;;;;;9.07;6.82;;;;;;;;;;5093913;28;20204;-58
2020/12/29 08:17:21;;;;;;;9.18;7.45;;;;;;;;;;5093791;28;20200;-59
2020/12/29 08:20:01;;;;;;;12.43;7.47;;;;;;;;;;5094562;28;20209;-59
2020/12/29 08:22:29;;;;;;;8.15;7.18;;;;;;;;;;5093688;28;20220;-60
2020/12/29 08:24:56;;;;;;;8.93;7.68;;;;;;;;;;5093519;28;20301;-59
2020/12/29 08:27:23;;;;;;;8.30;7.30;;;;;;;;;;5093785;28;20212;-60
2020/12/29 08:29:50;;;;;;;9.40;8.20;;;;;;;;;;5093955;28;20200;-61
2020/12/29 08:32:18;;;;;;;8.40;7.38;;;;;;;;;;5093516;28;20247;-60
2020/12/29 08:34:47;;;;;;;9.32;8.38;;;;;;;;;;5093842;28;20204;-60
2020/12/29 08:37:22;;;;;;;7.85;6.95;;;;;;;;;;5093312;28;20281;-60
2020/12/29 08:39:51;;;;;;;8.85;7.00;;;;;;;;;;5094642;28;20195;-60
2020/12/29 08:42:19;;;;;;;8.93;7.22;;;;;;;;;;5093697;28;20269;-60
2020/12/29 08:44:46;;;;;;;10.23;8.52;;;;;;;;;;5093792;28;20606;-59
2020/12/29 08:47:14;;;;;;;9.32;7.72;;;;;;;;;;5093211;28;20253;-60
2020/12/29 08:49:41;;;;;;;8.50;7.60;;;;;;;;;;5093535;28;20564;-60
2020/12/29 08:52:08;;;;;;;8.10;6.50;;;;;;;;;;5093565;28;20231;-60
2020/12/29 08:54:37;;;;;;;6.40;5.75;;;;;;;;;;5098913;28;20211;-59
2020/12/29 08:57:05;;;;;;;8.55;7.20;;;;;;;;;;5098302;28;20287;-60
2020/12/29 08:59:39;;;;;;;10.60;8.00;;;;;;;;;;5098125;28;20296;-59
2020/12/29 09:02:06;;;;;;;9.02;7.25;;;;;;;;;;5097972;28;20224;-60
2020/12/29 09:04:33;;;;;;;9.20;7.53;;;;;;;;;;5097459;28;20234;-59
2020/12/29 09:07:01;;;;;;;13.85;7.00;;;;;;;;;;5097325;28;20308;-61
2020/12/29 09:09:28;;;;;;;7.30;6.45;;;;;;;;;;5097356;28;20200;-61
2020/12/29 09:12:13;;;;;;;9.82;6.60;;;;;;;;;;5096629;28;20221;-61
2020/12/29 09:14:50;;;;;;;7.75;6.50;;;;;;;;;;5097596;28;20238;-61
2020/12/29 09:17:17;;;;;;;8.13;6.25;;;;;;;;;;5098016;28;20592;-61
2020/12/29 09:19:44;;;;;;;12.73;7.50;;;;;;;;;;5097086;28;20256;-61
2020/12/29 09:22:12;;;;;;;8.10;6.75;;;;;;;;;;5096661;28;20273;-61
2020/12/29 09:24:50;;;;;;;6.25;5.65;;;;;;;;;;5097091;28;20291;-60
2020/12/29 09:27:27;;;;;;;7.18;6.47;;;;;;;;;;5096625;28;20279;-59
2020/12/29 09:29:55;;;;;;;7.80;7.00;;;;;;;;;;5096892;28;20241;-59
2020/12/29 09:32:23;;;;;;;6.55;5.88;;;;;;;;;;5096710;28;20232;-59
2020/12/29 09:34:50;;;;;;;8.95;6.32;;;;;;;;;;5096859;28;20208;-59
2020/12/29 09:37:17;;;;;;;8.07;5.53;;;;;;;;;;5096189;28;20196;-60
2020/12/29 09:39:44;;;;;;;8.60;6.30;;;;;;;;;;5096772;28;20208;-60
2020/12/29 09:42:10;;;;;;;6.72;5.93;;;;;;;;;;5097104;28;20224;-61
2020/12/29 09:44:37;;;;;;;7.35;6.65;;;;;;;;;;5101967;28;20196;-61
2020/12/29 09:47:05;;;;;;;6.70;5.85;;;;;;;;;;5103563;28;20224;-60
2020/12/29 09:49:32;;;;;;;11.38;7.05;;;;;;;;;;5098178;28;20573;-60
2020/12/29 09:52:00;;;;;;;5.78;5.05;;;;;;;;;;5095970;28;20246;-60
2020/12/29 09:54:27;;;;;;;5.95;5.35;;;;;;;;;;5096703;28;20196;-60
2020/12/29 09:56:56;;;;;;;6.40;5.50;;;;;;;;;;5095957;28;20197;-60
2020/12/29 09:59:23;;;;;;;8.23;6.57;;;;;;;;;;5096441;28;20196;-61
2020/12/29 10:01:50;;;;;;;5.70;5.10;;;;;;;;;;5097047;28;20220;-60
2020/12/29 10:04:17;;;;;;;6.18;5.40;;;;;;;;;;5096128;28;20303;-61
2020/12/29 10:06:44;;;;;;;7.00;5.85;;;;;;;;;;5095287;28;20646;-61
2020/12/29 10:09:11;;;;;;;6.78;5.90;;;;;;;;;;5096652;28;20208;-60
2020/12/29 10:11:38;;;;;;;6.00;5.40;;;;;;;;;;5096168;28;20224;-60
2020/12/29 10:14:04;;;;;;;6.82;6.00;;;;;;;;;;5096512;28;20785;-60
2020/12/29 10:16:34;;;;;;;7.40;6.03;;;;;;;;;;5096173;28;20197;-59
2020/12/29 10:19:00;;;;;;;6.55;5.50;;;;;;;;;;5096392;28;20255;-61
2020/12/29 10:21:28;;;;;;;6.80;5.70;;;;;;;;;;5096523;28;20224;-61
2020/12/29 10:23:55;;;;;;;6.95;6.25;;;;;;;;;;5096606;28;20200;-61
2020/12/29 10:26:21;;;;;;;7.90;6.22;;;;;;;;;;5096513;28;20220;-59
2020/12/29 10:28:48;;;;;;;6.32;5.70;;;;;;;;;;5097600;28;20204;-60
2020/12/29 10:31:15;;;;;;;8.23;6.32;;;;;;;;;;5095889;28;20228;-61
2020/12/29 10:33:42;;;;;;;6.07;5.47;;;;;;;;;;5095959;28;20204;-59
2020/12/29 10:36:09;;;;;;;6.80;5.93;;;;;;;;;;5095822;28;20192;-60
2020/12/29 10:38:37;;;;;;;6.72;5.70;;;;;;;;;;5095782;28;20211;-61
2020/12/29 10:41:03;;;;;;;6.30;5.70;;;;;;;;;;5095509;28;20231;-60
2020/12/29 10:43:30;;;;;;;6.70;6.10;;;;;;;;;;5096019;28;20208;-61
2020/12/29 10:45:57;;;;;;;7.43;6.72;;;;;;;;;;5096014;28;20200;-61
2020/12/29 10:48:23;;;;;;;7.10;5.72;;;;;;;;;;5095703;28;20229;-61
2020/12/29 10:50:50;;;;;;;7.20;5.70;;;;;;;;;;5096754;28;20208;-60
2020/12/29 10:53:17;;;;;;;6.43;5.50;;;;;;;;;;5097852;28;20215;-61
2020/12/29 10:55:45;;;;;;;5.72;5.18;;;;;;;;;;5097346;28;20215;-60
2020/12/29 10:58:11;;;;;;;7.55;6.78;;;;;;;;;;5097194;28;20200;-60
2020/12/29 11:00:38;;;;;;;7.25;6.05;;;;;;;;;;5097701;28;20253;-60
2020/12/29 11:03:05;;;;;;;5.75;5.15;;;;;;;;;;5097872;28;20740;-59
2020/12/29 11:05:32;;;;;;;6.65;5.65;;;;;;;;;;5097407;28;20204;-61
2020/12/29 11:07:58;;;;;;;5.78;5.28;;;;;;;;;;5096442;28;20215;-61
2020/12/29 11:10:25;;;;;;;6.35;5.32;;;;;;;;;;5095425;28;20204;-60
2020/12/29 11:12:53;;;;;;;5.97;5.38;;;;;;;;;;5095546;28;20231;-61
2020/12/29 11:15:20;;;;;;;5.63;5.13;;;;;;;;;;5095167;28;20208;-60
2020/12/29 11:17:46;;;;;;;6.72;5.05;;;;;;;;;;5095271;28;20204;-60
2020/12/29 11:20:13;;;;;;;5.80;5.20;;;;;;;;;;5095355;28;20200;-60
2020/12/29 11:22:42;;;;;;;6.20;5.60;;;;;;;;;;5094211;28;20220;-60
2020/12/29 11:25:09;;;;;;;6.40;5.05;;;;;;;;;;5095040;28;20674;-60
2020/12/29 11:27:36;;;;;;;5.80;5.28;;;;;;;;;;5094744;28;20228;-60
2020/12/29 11:30:03;;;;;;;6.35;5.75;;;;;;;;;;5097019;28;20666;-60
2020/12/29 11:32:30;;;;;;;6.60;5.53;;;;;;;;;;5099741;28;20231;-61
2020/12/29 11:34:57;;;;;;;4.88;4.35;;;;;;;;;;5097157;28;20208;-61
2020/12/29 11:37:24;;;;;;;5.40;4.90;;;;;;;;;;5096443;28;20207;-61
2020/12/29 11:39:50;;;;;;;5.93;5.32;;;;;;;;;;5096940;28;20613;-61
2020/12/29 11:42:17;;;;;;;6.28;5.38;;;;;;;;;;5096306;28;20224;-60
2020/12/29 11:44:44;;;;;;;9.05;5.75;;;;;;;;;;5095970;28;20208;-61
2020/12/29 11:47:11;;;;;;;7.20;6.03;;;;;;;;;;5096231;28;20220;-60
2020/12/29 11:49:38;;;;;;;6.50;5.80;;;;;;;;;;5094601;28;20211;-61
2020/12/29 11:52:05;;;;;;;7.05;6.35;;;;;;;;;;5095415;28;20220;-60
2020/12/29 11:54:31;;;;;;;6.63;5.97;;;;;;;;;;5094534;28;20201;-61
2020/12/29 11:56:58;;;;;;;7.47;6.68;;;;;;;;;;5094423;28;20196;-61
2020/12/29 11:59:25;;;;;;;7.10;6.05;;;;;;;;;;5093842;28;20196;-60
2020/12/29 12:01:52;;;;;;;7.25;6.35;;;;;;;;;;5104806;28;20247;-61
2020/12/29 12:04:19;;;;;;;6.93;6.22;;;;;;;;;;5103150;28;20208;-60
2020/12/29 12:06:47;;;;;;;7.30;6.60;;;;;;;;;;5100750;28;20220;-61
2020/12/29 12:09:15;;;;;;;8.68;6.82;;;;;;;;;;5104847;28;20204;-61
2020/12/29 12:11:42;;;;;;;6.30;5.70;;;;;;;;;;5103550;28;20230;-61
2020/12/29 12:14:09;;;;;;;7.13;6.28;;;;;;;;;;5103387;28;20200;-61
2020/12/29 12:16:38;;;;;;;8.77;6.75;;;;;;;;;;5105981;28;20291;-61
2020/12/29 12:19:05;;;;;;;9.25;7.13;;;;;;;;;;5095409;28;20203;-61
2020/12/29 12:21:33;;;;;;;9.60;7.75;;;;;;;;;;5093765;28;20244;-61
2020/12/29 12:23:59;;;;;;;7.07;6.38;;;;;;;;;;5095545;28;20203;-60
2020/12/29 12:26:27;;;;;;;12.93;7.15;;;;;;;;;;5097892;28;20583;-60
2020/12/29 12:28:54;;;;;;;7.25;6.10;;;;;;;;;;5098369;28;20200;-61
2020/12/29 12:31:21;;;;;;;7.72;6.95;;;;;;;;;;5098592;28;20227;-60
2020/12/29 12:33:48;;;;;;;7.38;6.72;;;;;;;;;;5100588;28;20204;-60
2020/12/29 12:36:15;;;;;;;9.80;6.53;;;;;;;;;;5099296;28;20683;-61
2020/12/29 12:38:42;;;;;;;7.20;6.45;;;;;;;;;;5099401;28;20201;-60
2020/12/29 12:41:09;;;;;;;8.30;7.20;;;;;;;;;;5101562;28;20220;-61
2020/12/29 12:43:36;;;;;;;6.15;5.55;;;;;;;;;;5099830;28;20208;-61
2020/12/29 12:46:03;;;;;;;7.75;6.10;;;;;;;;;;5100368;28;20200;-61
2020/12/29 12:48:30;;;;;;;12.88;7.00;;;;;;;;;;5099883;28;20200;-61
2020/12/29 12:50:57;;;;;;;5.93;5.40;;;;;;;;;;5101105;28;20590;-60
2020/12/29 12:53:23;;;;;;;7.43;6.47;;;;;;;;;;5099805;28;20281;-60
2020/12/29 12:55:51;;;;;;;6.07;5.55;;;;;;;;;;5099922;28;20231;-60
2020/12/29 12:58:18;;;;;;;7.18;6.40;;;;;;;;;;5098911;28;20695;-61
2020/12/29 13:00:44;;;;;;;8.70;6.07;;;;;;;;;;5099060;28;20201;-60
2020/12/29 13:03:12;;;;;;;7.55;5.20;;;;;;;;;;5098492;28;20302;-60
2020/12/29 13:05:38;;;;;;;8.20;6.18;;;;;;;;;;5098315;28;20208;-61
2020/12/29 13:08:05;;;;;;;6.00;5.50;;;;;;;;;;5098140;28;20360;-59
2020/12/29 13:10:32;;;;;;;7.00;6.00;;;;;;;;;;5098055;28;20227;-61
2020/12/29 13:12:59;;;;;;;6.38;5.78;;;;;;;;;;5097334;28;20563;-61
2020/12/29 13:15:26;;;;;;;6.30;5.70;;;;;;;;;;5097633;28;20196;-61
2020/12/29 13:17:53;;;;;;;8.63;5.90;;;;;;;;;;5097656;28;20196;-60
2020/12/29 13:20:20;;;;;;;7.13;5.75;;;;;;;;;;5097551;28;20211;-61
2020/12/29 13:22:46;;;;;;;7.97;5.22;;;;;;;;;;5096874;28;20225;-61
2020/12/29 13:25:14;;;;;;;6.57;5.68;;;;;;;;;;5098197;28;20196;-61
2020/12/29 13:27:41;;;;;;;8.13;6.20;;;;;;;;;;5098029;28;20324;-61
2020/12/29 13:30:09;;;;;;;8.70;6.53;;;;;;;;;;5098577;28;20200;-60
2020/12/29 13:32:36;;;;;;;6.75;6.10;;;;;;;;;;5097772;28;20315;-61
2020/12/29 13:35:03;;;;;;;9.27;5.80;;;;;;;;;;5098296;28;20204;-61
2020/12/29 13:37:31;;;;;;;8.45;5.65;;;;;;;;;;5097685;28;20257;-61
2020/12/29 13:39:57;;;;;;;7.25;5.32;;;;;;;;;;5100551;28;20336;-61
2020/12/29 13:42:24;;;;;;;7.75;6.65;;;;;;;;;;5108017;28;20224;-61
2020/12/29 13:44:51;;;;;;;6.18;5.40;;;;;;;;;;5108212;28;20207;-61
2020/12/29 13:47:19;;;;;;;7.22;5.45;;;;;;;;;;5110251;28;20220;-61
2020/12/29 13:49:46;;;;;;;6.00;5.47;;;;;;;;;;5111067;28;20197;-61
2020/12/29 13:52:13;;;;;;;8.02;6.40;;;;;;;;;;5108584;28;20270;-61
2020/12/29 13:54:40;;;;;;;7.05;5.70;;;;;;;;;;5103735;28;20216;-61
2020/12/29 13:57:06;;;;;;;6.45;5.85;;;;;;;;;;5096064;28;20200;-61
2020/12/29 13:59:33;;;;;;;7.35;5.80;;;;;;;;;;5096870;28;20671;-60
2020/12/29 14:02:00;;;;;;;6.25;5.75;;;;;;;;;;5098620;28;20220;-61
2020/12/29 14:04:27;;;;;;;5.80;5.13;;;;;;;;;;5098737;28;20200;-60
2020/12/29 14:06:54;;;;;;;8.57;5.40;;;;;;;;;;5095788;28;20269;-60
2020/12/29 14:09:21;;;;;;;9.82;4.95;;;;;;;;;;5096846;28;20204;-60
2020/12/29 14:11:48;;;;;;;5.20;4.55;;;;;;;;;;5096213;28;20220;-60
2020/12/29 14:14:15;;;;;;;9.77;5.82;;;;;;;;;;5096707;28;20200;-61
2020/12/29 14:16:42;;;;;;;8.57;4.88;;;;;;;;;;5097748;28;20537;-61
2020/12/29 14:19:09;;;;;;;8.52;4.40;;;;;;;;;;5096884;28;20196;-60
2020/12/29 14:21:37;;;;;;;7.60;5.20;;;;;;;;;;5096446;28;20261;-61
2020/12/29 14:24:04;;;;;;;8.73;4.03;;;;;;;;;;5096315;28;20207;-61
2020/12/29 14:26:30;;;;;;;6.40;4.35;;;;;;;;;;5095874;28;20578;-59
2020/12/29 14:28:57;;;;;;;6.40;5.38;;;;;;;;;;5095946;28;20207;-61
2020/12/29 14:31:24;;;;;;;5.22;4.25;;;;;;;;;;5095798;28;20696;-61
2020/12/29 14:33:51;;;;;;;5.60;4.05;;;;;;;;;;5100496;28;20200;-61
2020/12/29 14:36:18;;;;;;;6.30;4.35;;;;;;;;;;5096810;28;20695;-61